PWSweather.com
Personal Weather Stations
Station Observations
THRCKWTHR1
Aveley, EssexGB RM154EL

AveleyEssexGB RM154EL

Lat: 51.5000552, Lon: 0.2501753000000235

Elevation: 98.5

Station Type: Oregon Scientific WMR88

www.facebook.com/thurrockweather

High Low Average
Temperature 54.3°F12.4°C 48.0°F8.9°C 50.3°F10.2°C
Dew Point 53.8°F12.1°C 47.5°F8.6°C 49.7°F9.8°C
Winds 15.6 mph 25.1 kmh Calm Calm 1.0 mph E1.6 kmh E
Wind Gusts 15.6 mph25.1 kmh -- 3.0 mph4.8 kmh
Humidity 98% 97% 98%
Pressure 29.92 in1013.2 mb 29.74 in1007.1 mb -
Precipitation 0.08 in2.0 mm - -
Hour Temp Dew Point Humidity Winds Wind Gusts Pressure Precip Precip Rate Daily Precip Total
12:00 AM 49.1°F9.5°C 48.6°F9.2°C 98% Calm Calm 2.7 mph4.3 kmh 29.77 in1008.1 mb 0.00 in0.0 mm 0.00 in0.0 mm 0.00 in0.0 mm
12:05 AM 49.3°F9.6°C 48.7°F9.3°C 98% Calm Calm 2.7 mph4.3 kmh 29.77 in1008.1 mb 0.00 in0.0 mm 0.00 in0.0 mm 0.00 in0.0 mm
12:10 AM 49.3°F9.6°C 48.7°F9.3°C 98% 1.4 mph SW2.3 kmh SW 4.1 mph6.6 kmh 29.77 in1008.1 mb 0.00 in0.0 mm 0.00 in0.0 mm 0.00 in0.0 mm
12:15 AM 49.3°F9.6°C 48.7°F9.3°C 98% Calm Calm 4.1 mph6.6 kmh 29.77 in1008.1 mb 0.00 in0.0 mm 0.00 in0.0 mm 0.00 in0.0 mm
12:20 AM 49.5°F9.7°C 48.9°F9.4°C 98% 3.3 mph SW5.3 kmh SW 4.1 mph6.6 kmh 29.77 in1008.1 mb 0.00 in0.0 mm 0.00 in0.0 mm 0.00 in0.0 mm
12:25 AM 49.5°F9.7°C 48.9°F9.4°C 98% 1.4 mph S2.3 kmh S 3.5 mph5.6 kmh 29.77 in1008.1 mb 0.00 in0.0 mm 0.00 in0.0 mm 0.00 in0.0 mm
12:30 AM 49.5°F9.7°C 48.9°F9.4°C 98% 4.9 mph SW7.9 kmh SW 4.9 mph7.9 kmh 29.77 in1008.1 mb 0.00 in0.0 mm 0.00 in0.0 mm 0.00 in0.0 mm
12:35 AM 49.5°F9.7°C 48.9°F9.4°C 98% 1.4 mph SW2.3 kmh SW 4.9 mph7.9 kmh 29.77 in1008.1 mb 0.00 in0.0 mm 0.00 in0.0 mm 0.00 in0.0 mm
12:40 AM 49.5°F9.7°C 48.9°F9.4°C 98% Calm Calm 3.8 mph6.1 kmh 29.77 in1008.1 mb 0.00 in0.0 mm 0.00 in0.0 mm 0.00 in0.0 mm
12:45 AM 49.3°F9.6°C 48.7°F9.3°C 98% Calm Calm 3.8 mph6.1 kmh 29.77 in1008.1 mb 0.00 in0.0 mm 0.00 in0.0 mm 0.00 in0.0 mm
12:50 AM 49.3°F9.6°C 48.7°F9.3°C 98% 1.6 mph S2.6 kmh S 1.6 mph2.6 kmh 29.77 in1008.1 mb 0.00 in0.0 mm 0.00 in0.0 mm 0.00 in0.0 mm
12:55 AM 49.1°F9.5°C 48.6°F9.2°C 98% Calm Calm 1.6 mph2.6 kmh 29.77 in1008.1 mb 0.00 in0.0 mm 0.00 in0.0 mm 0.00 in0.0 mm
01:00 AM 49.1°F9.5°C 48.6°F9.2°C 98% Calm Calm 1.4 mph2.3 kmh 29.77 in1008.1 mb 0.00 in0.0 mm 0.00 in0.0 mm 0.00 in0.0 mm
01:05 AM 49.1°F9.5°C 48.6°F9.2°C 98% Calm Calm 1.4 mph2.3 kmh 29.77 in1008.1 mb 0.00 in0.0 mm 0.00 in0.0 mm 0.00 in0.0 mm
01:10 AM 48.9°F9.4°C 48.4°F9.1°C 98% Calm Calm -- 29.77 in1008.1 mb 0.00 in0.0 mm 0.00 in0.0 mm 0.00 in0.0 mm
01:15 AM 48.9°F9.4°C 48.4°F9.1°C 98% Calm Calm -- 29.77 in1008.1 mb 0.00 in0.0 mm 0.00 in0.0 mm 0.00 in0.0 mm
01:20 AM 48.7°F9.3°C 48.2°F9.0°C 98% Calm Calm -- 29.77 in1008.1 mb 0.00 in0.0 mm 0.00 in0.0 mm 0.00 in0.0 mm
01:25 AM 48.7°F9.3°C 48.2°F9.0°C 98% Calm Calm -- 29.77 in1008.1 mb 0.00 in0.0 mm 0.00 in0.0 mm 0.00 in0.0 mm
01:30 AM 48.7°F9.3°C 48.2°F9.0°C 98% Calm Calm -- 29.77 in1008.1 mb 0.00 in0.0 mm 0.00 in0.0 mm 0.00 in0.0 mm
01:35 AM 48.7°F9.3°C 48.2°F9.0°C 98% Calm Calm -- 29.77 in1008.1 mb 0.00 in0.0 mm 0.00 in0.0 mm 0.00 in0.0 mm
01:40 AM 48.6°F9.2°C 48.0°F8.9°C 98% Calm Calm -- 29.77 in1008.1 mb 0.00 in0.0 mm 0.00 in0.0 mm 0.00 in0.0 mm
01:45 AM 48.6°F9.2°C 48.0°F8.9°C 98% Calm Calm 1.9 mph3.1 kmh 29.77 in1008.1 mb 0.00 in0.0 mm 0.00 in0.0 mm 0.00 in0.0 mm
01:50 AM 48.6°F9.2°C 48.0°F8.9°C 98% Calm Calm 1.9 mph3.1 kmh 29.77 in1008.1 mb 0.00 in0.0 mm 0.00 in0.0 mm 0.00 in0.0 mm
01:55 AM 48.6°F9.2°C 48.0°F8.9°C 98% Calm Calm -- 29.77 in1008.1 mb 0.00 in0.0 mm 0.00 in0.0 mm 0.00 in0.0 mm
02:00 AM 48.4°F9.1°C 47.8°F8.8°C 98% Calm Calm -- 29.77 in1008.1 mb 0.00 in0.0 mm 0.00 in0.0 mm 0.00 in0.0 mm
02:05 AM 48.4°F9.1°C 47.8°F8.8°C 98% Calm Calm -- 29.77 in1008.1 mb 0.00 in0.0 mm 0.00 in0.0 mm 0.00 in0.0 mm
02:10 AM 48.4°F9.1°C 47.8°F8.8°C 98% Calm Calm -- 29.77 in1008.1 mb 0.00 in0.0 mm 0.00 in0.0 mm 0.00 in0.0 mm
02:15 AM 48.4°F9.1°C 47.8°F8.8°C 98% Calm Calm -- 29.77 in1008.1 mb 0.00 in0.0 mm 0.00 in0.0 mm 0.00 in0.0 mm
02:20 AM 48.2°F9.0°C 47.7°F8.7°C 98% Calm Calm -- 29.77 in1008.1 mb 0.00 in0.0 mm 0.00 in0.0 mm 0.00 in0.0 mm
02:25 AM 48.2°F9.0°C 47.7°F8.7°C 98% 1.1 mph SE1.8 kmh SE 1.1 mph1.8 kmh 29.77 in1008.1 mb 0.00 in0.0 mm 0.00 in0.0 mm 0.00 in0.0 mm
02:30 AM 48.2°F9.0°C 47.7°F8.7°C 98% Calm Calm 1.1 mph1.8 kmh 29.74 in1007.1 mb 0.00 in0.0 mm 0.00 in0.0 mm 0.00 in0.0 mm
02:35 AM 48.2°F9.0°C 47.7°F8.7°C 98% Calm Calm -- 29.74 in1007.1 mb 0.00 in0.0 mm 0.00 in0.0 mm 0.00 in0.0 mm
02:40 AM 48.2°F9.0°C 47.7°F8.7°C 98% Calm Calm -- 29.74 in1007.1 mb 0.00 in0.0 mm 0.00 in0.0 mm 0.00 in0.0 mm
02:45 AM 48.2°F9.0°C 47.7°F8.7°C 98% Calm Calm -- 29.77 in1008.1 mb 0.00 in0.0 mm 0.00 in0.0 mm 0.00 in0.0 mm
02:50 AM 48.2°F9.0°C 47.7°F8.7°C 98% Calm Calm -- 29.77 in1008.1 mb 0.00 in0.0 mm 0.00 in0.0 mm 0.00 in0.0 mm
02:55 AM 48.2°F9.0°C 47.7°F8.7°C 98% Calm Calm -- 29.77 in1008.1 mb 0.00 in0.0 mm 0.00 in0.0 mm 0.00 in0.0 mm
03:00 AM 48.4°F9.1°C 47.8°F8.8°C 98% Calm Calm 1.4 mph2.3 kmh 29.74 in1007.1 mb 0.00 in0.0 mm 0.00 in0.0 mm 0.00 in0.0 mm
03:05 AM 48.4°F9.1°C 47.8°F8.8°C 98% Calm Calm 1.4 mph2.3 kmh 29.74 in1007.1 mb 0.00 in0.0 mm 0.00 in0.0 mm 0.00 in0.0 mm
03:10 AM 48.4°F9.1°C 47.8°F8.8°C 98% Calm Calm -- 29.74 in1007.1 mb 0.00 in0.0 mm 0.00 in0.0 mm 0.00 in0.0 mm
03:15 AM 48.4°F9.1°C 47.8°F8.8°C 98% Calm Calm -- 29.77 in1008.1 mb 0.00 in0.0 mm 0.00 in0.0 mm 0.00 in0.0 mm
03:20 AM 48.4°F9.1°C 47.8°F8.8°C 98% Calm Calm -- 29.77 in1008.1 mb 0.00 in0.0 mm 0.00 in0.0 mm 0.00 in0.0 mm
03:25 AM 48.4°F9.1°C 47.8°F8.8°C 98% Calm Calm -- 29.77 in1008.1 mb 0.00 in0.0 mm 0.00 in0.0 mm 0.00 in0.0 mm
03:30 AM 48.4°F9.1°C 47.8°F8.8°C 98% Calm Calm -- 29.77 in1008.1 mb 0.00 in0.0 mm 0.00 in0.0 mm 0.00 in0.0 mm
03:35 AM 48.6°F9.2°C 48.0°F8.9°C 98% Calm Calm -- 29.77 in1008.1 mb 0.00 in0.0 mm 0.00 in0.0 mm 0.00 in0.0 mm
03:40 AM 48.6°F9.2°C 48.0°F8.9°C 98% Calm Calm -- 29.77 in1008.1 mb 0.00 in0.0 mm 0.00 in0.0 mm 0.00 in0.0 mm
03:45 AM 48.6°F9.2°C 48.0°F8.9°C 98% Calm Calm -- 29.77 in1008.1 mb 0.00 in0.0 mm 0.00 in0.0 mm 0.00 in0.0 mm
03:50 AM 48.6°F9.2°C 48.0°F8.9°C 98% Calm Calm -- 29.77 in1008.1 mb 0.00 in0.0 mm 0.00 in0.0 mm 0.00 in0.0 mm
03:55 AM 48.7°F9.3°C 48.2°F9.0°C 98% Calm Calm -- 29.77 in1008.1 mb 0.00 in0.0 mm 0.00 in0.0 mm 0.00 in0.0 mm
04:00 AM 48.7°F9.3°C 48.2°F9.0°C 98% Calm Calm -- 29.77 in1008.1 mb 0.00 in0.0 mm 0.00 in0.0 mm 0.00 in0.0 mm
04:05 AM 48.9°F9.4°C 48.4°F9.1°C 98% Calm Calm -- 29.77 in1008.1 mb 0.00 in0.0 mm 0.00 in0.0 mm 0.00 in0.0 mm
04:10 AM 48.9°F9.4°C 48.4°F9.1°C 98% Calm Calm -- 29.77 in1008.1 mb 0.00 in0.0 mm 0.00 in0.0 mm 0.00 in0.0 mm
04:15 AM 48.9°F9.4°C 48.4°F9.1°C 98% Calm Calm -- 29.77 in1008.1 mb 0.00 in0.0 mm 0.00 in0.0 mm 0.00 in0.0 mm
04:20 AM 49.1°F9.5°C 48.6°F9.2°C 98% Calm Calm -- 29.77 in1008.1 mb 0.00 in0.0 mm 0.00 in0.0 mm 0.00 in0.0 mm
04:25 AM 49.1°F9.5°C 48.6°F9.2°C 98% Calm Calm -- 29.77 in1008.1 mb 0.00 in0.0 mm 0.00 in0.0 mm 0.00 in0.0 mm
04:30 AM 49.1°F9.5°C 48.6°F9.2°C 98% Calm Calm -- 29.77 in1008.1 mb 0.00 in0.0 mm 0.00 in0.0 mm 0.00 in0.0 mm
04:35 AM 49.1°F9.5°C 48.6°F9.2°C 98% Calm Calm -- 29.77 in1008.1 mb 0.00 in0.0 mm 0.00 in0.0 mm 0.00 in0.0 mm
04:40 AM 49.3°F9.6°C 48.7°F9.3°C 98% Calm Calm -- 29.77 in1008.1 mb 0.00 in0.0 mm 0.00 in0.0 mm 0.00 in0.0 mm
04:45 AM 49.3°F9.6°C 48.7°F9.3°C 98% Calm Calm -- 29.77 in1008.1 mb 0.00 in0.0 mm 0.00 in0.0 mm 0.00 in0.0 mm
04:50 AM 49.5°F9.7°C 48.9°F9.4°C 98% Calm Calm -- 29.77 in1008.1 mb 0.00 in0.0 mm 0.00 in0.0 mm 0.00 in0.0 mm
04:55 AM 49.5°F9.7°C 48.9°F9.4°C 98% Calm Calm -- 29.77 in1008.1 mb 0.00 in0.0 mm 0.00 in0.0 mm 0.00 in0.0 mm
05:00 AM 49.5°F9.7°C 48.9°F9.4°C 98% Calm Calm -- 29.77 in1008.1 mb 0.00 in0.0 mm 0.00 in0.0 mm 0.00 in0.0 mm
05:05 AM 49.6°F9.8°C 49.1°F9.5°C 98% Calm Calm -- 29.77 in1008.1 mb 0.00 in0.0 mm 0.00 in0.0 mm 0.00 in0.0 mm
05:10 AM 49.8°F9.9°C 49.3°F9.6°C 98% Calm Calm -- 29.77 in1008.1 mb 0.00 in0.0 mm 0.00 in0.0 mm 0.00 in0.0 mm
05:15 AM 49.8°F9.9°C 49.3°F9.6°C 98% Calm Calm -- 29.77 in1008.1 mb 0.00 in0.0 mm 0.00 in0.0 mm 0.00 in0.0 mm
05:20 AM 50.0°F10.0°C 49.5°F9.7°C 98% Calm Calm -- 29.77 in1008.1 mb 0.00 in0.0 mm 0.00 in0.0 mm 0.00 in0.0 mm
05:25 AM 50.2°F10.1°C 49.6°F9.8°C 98% Calm Calm -- 29.77 in1008.1 mb 0.00 in0.0 mm 0.00 in0.0 mm 0.00 in0.0 mm
05:30 AM 50.2°F10.1°C 49.6°F9.8°C 98% Calm Calm -- 29.77 in1008.1 mb 0.00 in0.0 mm 0.00 in0.0 mm 0.00 in0.0 mm
05:35 AM 50.4°F10.2°C 49.8°F9.9°C 98% Calm Calm -- 29.77 in1008.1 mb 0.00 in0.0 mm 0.00 in0.0 mm 0.00 in0.0 mm
05:40 AM 50.4°F10.2°C 49.8°F9.9°C 98% Calm Calm -- 29.77 in1008.1 mb 0.00 in0.0 mm 0.00 in0.0 mm 0.00 in0.0 mm
05:45 AM 50.4°F10.2°C 49.8°F9.9°C 98% Calm Calm -- 29.77 in1008.1 mb 0.00 in0.0 mm 0.00 in0.0 mm 0.00 in0.0 mm
05:50 AM 50.5°F10.3°C 50.0°F10.0°C 98% Calm Calm -- 29.77 in1008.1 mb 0.00 in0.0 mm 0.00 in0.0 mm 0.00 in0.0 mm
05:55 AM 50.4°F10.2°C 49.8°F9.9°C 98% Calm Calm -- 29.77 in1008.1 mb 0.00 in0.0 mm 0.00 in0.0 mm 0.00 in0.0 mm
06:00 AM 50.5°F10.3°C 50.0°F10.0°C 98% Calm Calm -- 29.77 in1008.1 mb 0.00 in0.0 mm 0.00 in0.0 mm 0.00 in0.0 mm
06:05 AM 50.4°F10.2°C 49.8°F9.9°C 98% Calm Calm -- 29.77 in1008.1 mb 0.00 in0.0 mm 0.00 in0.0 mm 0.00 in0.0 mm
06:10 AM 50.5°F10.3°C 50.0°F10.0°C 98% Calm Calm -- 29.77 in1008.1 mb 0.00 in0.0 mm 0.00 in0.0 mm 0.00 in0.0 mm
06:15 AM 50.5°F10.3°C 50.0°F10.0°C 98% Calm Calm -- 29.77 in1008.1 mb 0.00 in0.0 mm 0.00 in0.0 mm 0.00 in0.0 mm
06:20 AM 50.5°F10.3°C 50.0°F10.0°C 98% Calm Calm -- 29.77 in1008.1 mb 0.00 in0.0 mm 0.00 in0.0 mm 0.00 in0.0 mm
06:25 AM 50.5°F10.3°C 50.0°F10.0°C 98% Calm Calm -- 29.77 in1008.1 mb 0.00 in0.0 mm 0.00 in0.0 mm 0.00 in0.0 mm
06:30 AM 50.5°F10.3°C 50.0°F10.0°C 98% Calm Calm -- 29.80 in1009.1 mb 0.00 in0.0 mm 0.00 in0.0 mm 0.00 in0.0 mm
06:35 AM 50.5°F10.3°C 50.0°F10.0°C 98% Calm Calm -- 29.80 in1009.1 mb 0.00 in0.0 mm 0.00 in0.0 mm 0.00 in0.0 mm
06:40 AM 50.7°F10.4°C 50.2°F10.1°C 98% Calm Calm -- 29.80 in1009.1 mb 0.00 in0.0 mm 0.00 in0.0 mm 0.00 in0.0 mm
06:45 AM 50.7°F10.4°C 50.2°F10.1°C 98% Calm Calm -- 29.80 in1009.1 mb 0.00 in0.0 mm 0.00 in0.0 mm 0.00 in0.0 mm
06:50 AM 50.7°F10.4°C 50.2°F10.1°C 98% Calm Calm -- 29.80 in1009.1 mb 0.00 in0.0 mm 0.00 in0.0 mm 0.00 in0.0 mm
06:55 AM 50.7°F10.4°C 50.2°F10.1°C 98% Calm Calm -- 29.80 in1009.1 mb 0.00 in0.0 mm 0.00 in0.0 mm 0.00 in0.0 mm
07:00 AM 50.9°F10.5°C 50.4°F10.2°C 98% Calm Calm -- 29.80 in1009.1 mb 0.00 in0.0 mm 0.00 in0.0 mm 0.00 in0.0 mm
07:05 AM 50.9°F10.5°C 50.4°F10.2°C 98% Calm Calm -- 29.80 in1009.1 mb 0.00 in0.0 mm 0.00 in0.0 mm 0.00 in0.0 mm
07:10 AM 50.9°F10.5°C 50.4°F10.2°C 98% Calm Calm -- 29.80 in1009.1 mb 0.00 in0.0 mm 0.00 in0.0 mm 0.00 in0.0 mm
07:15 AM 50.9°F10.5°C 50.4°F10.2°C 98% Calm Calm -- 29.80 in1009.1 mb 0.00 in0.0 mm 0.00 in0.0 mm 0.00 in0.0 mm
07:20 AM 50.9°F10.5°C 50.4°F10.2°C 98% Calm Calm -- 29.80 in1009.1 mb 0.00 in0.0 mm 0.00 in0.0 mm 0.00 in0.0 mm
07:25 AM 51.1°F10.6°C 50.5°F10.3°C 98% Calm Calm -- 29.80 in1009.1 mb 0.00 in0.0 mm 0.00 in0.0 mm 0.00 in0.0 mm
07:30 AM 51.1°F10.6°C 50.5°F10.3°C 98% Calm Calm -- 29.80 in1009.1 mb 0.00 in0.0 mm 0.00 in0.0 mm 0.00 in0.0 mm
07:35 AM 51.1°F10.6°C 50.5°F10.3°C 98% Calm Calm -- 29.80 in1009.1 mb 0.00 in0.0 mm 0.00 in0.0 mm 0.00 in0.0 mm
07:40 AM 51.1°F10.6°C 50.5°F10.3°C 98% Calm Calm -- 29.80 in1009.1 mb 0.00 in0.0 mm 0.00 in0.0 mm 0.00 in0.0 mm
07:45 AM 51.1°F10.6°C 50.5°F10.3°C 98% Calm Calm -- 29.80 in1009.1 mb 0.00 in0.0 mm 0.00 in0.0 mm 0.00 in0.0 mm
07:50 AM 51.3°F10.7°C 50.7°F10.4°C 98% Calm Calm -- 29.80 in1009.1 mb 0.00 in0.0 mm 0.00 in0.0 mm 0.00 in0.0 mm
07:55 AM 51.3°F10.7°C 50.7°F10.4°C 98% Calm Calm -- 29.80 in1009.1 mb 0.00 in0.0 mm 0.00 in0.0 mm 0.00 in0.0 mm
08:00 AM 51.3°F10.7°C 50.7°F10.4°C 98% Calm Calm -- 29.83 in1010.2 mb 0.00 in0.0 mm 0.00 in0.0 mm 0.00 in0.0 mm
08:05 AM 51.3°F10.7°C 50.7°F10.4°C 98% Calm Calm -- 29.83 in1010.2 mb 0.00 in0.0 mm 0.00 in0.0 mm 0.00 in0.0 mm
08:10 AM 51.4°F10.8°C 50.9°F10.5°C 98% Calm Calm -- 29.83 in1010.2 mb 0.00 in0.0 mm 0.00 in0.0 mm 0.00 in0.0 mm
08:15 AM 51.4°F10.8°C 50.9°F10.5°C 98% Calm Calm -- 29.83 in1010.2 mb 0.00 in0.0 mm 0.00 in0.0 mm 0.00 in0.0 mm
08:20 AM 51.4°F10.8°C 50.9°F10.5°C 98% Calm Calm -- 29.83 in1010.2 mb 0.00 in0.0 mm 0.00 in0.0 mm 0.00 in0.0 mm
08:25 AM 51.4°F10.8°C 50.9°F10.5°C 98% Calm Calm -- 29.83 in1010.2 mb 0.00 in0.0 mm 0.00 in0.0 mm 0.00 in0.0 mm
08:30 AM 51.4°F10.8°C 50.9°F10.5°C 98% Calm Calm -- 29.83 in1010.2 mb 0.00 in0.0 mm 0.00 in0.0 mm 0.00 in0.0 mm
08:35 AM 51.4°F10.8°C 50.9°F10.5°C 98% Calm Calm -- 29.83 in1010.2 mb 0.00 in0.0 mm 0.00 in0.0 mm 0.00 in0.0 mm
08:40 AM 51.4°F10.8°C 50.9°F10.5°C 98% Calm Calm -- 29.83 in1010.2 mb 0.00 in0.0 mm 0.00 in0.0 mm 0.00 in0.0 mm
08:45 AM 51.6°F10.9°C 51.1°F10.6°C 98% Calm Calm -- 29.83 in1010.2 mb 0.00 in0.0 mm 0.00 in0.0 mm 0.00 in0.0 mm
08:50 AM 51.6°F10.9°C 51.1°F10.6°C 98% Calm Calm -- 29.83 in1010.2 mb 0.00 in0.0 mm 0.00 in0.0 mm 0.00 in0.0 mm
08:55 AM 51.6°F10.9°C 51.1°F10.6°C 98% Calm Calm -- 29.83 in1010.2 mb 0.00 in0.0 mm 0.00 in0.0 mm 0.00 in0.0 mm
09:00 AM 51.8°F11.0°C 51.3°F10.7°C 98% Calm Calm -- 29.83 in1010.2 mb 0.00 in0.0 mm 0.00 in0.0 mm 0.00 in0.0 mm
09:05 AM 52.0°F11.1°C 51.4°F10.8°C 98% Calm Calm -- 29.83 in1010.2 mb 0.00 in0.0 mm 0.00 in0.0 mm 0.00 in0.0 mm
09:10 AM 52.0°F11.1°C 51.4°F10.8°C 98% Calm Calm -- 29.83 in1010.2 mb 0.00 in0.0 mm 0.00 in0.0 mm 0.00 in0.0 mm
09:15 AM 52.2°F11.2°C 51.6°F10.9°C 98% Calm Calm -- 29.83 in1010.2 mb 0.00 in0.0 mm 0.00 in0.0 mm 0.00 in0.0 mm
09:20 AM 52.3°F11.3°C 51.8°F11.0°C 98% Calm Calm -- 29.83 in1010.2 mb 0.00 in0.0 mm 0.00 in0.0 mm 0.00 in0.0 mm
09:25 AM 52.7°F11.5°C 52.2°F11.2°C 98% Calm Calm -- 29.83 in1010.2 mb 0.00 in0.0 mm 0.00 in0.0 mm 0.00 in0.0 mm
09:30 AM 52.9°F11.6°C 52.3°F11.3°C 98% Calm Calm -- 29.83 in1010.2 mb 0.00 in0.0 mm 0.00 in0.0 mm 0.00 in0.0 mm
09:35 AM 53.4°F11.9°C 52.9°F11.6°C 98% Calm Calm -- 29.83 in1010.2 mb 0.00 in0.0 mm 0.00 in0.0 mm 0.00 in0.0 mm
09:40 AM 53.8°F12.1°C 53.2°F11.8°C 98% Calm Calm -- 29.83 in1010.2 mb 0.00 in0.0 mm 0.00 in0.0 mm 0.00 in0.0 mm
09:45 AM 54.1°F12.3°C 53.6°F12.0°C 98% Calm Calm -- 29.86 in1011.2 mb 0.00 in0.0 mm 0.00 in0.0 mm 0.00 in0.0 mm
09:50 AM 54.3°F12.4°C 53.5°F11.9°C 97% Calm Calm -- 29.86 in1011.2 mb 0.00 in0.0 mm 0.00 in0.0 mm 0.00 in0.0 mm
09:55 AM 54.3°F12.4°C 53.8°F12.1°C 98% 15.6 mph SW25.1 kmh SW 15.6 mph25.1 kmh 29.86 in1011.2 mb 0.00 in0.0 mm 0.00 in0.0 mm 0.00 in0.0 mm
10:00 AM 53.2°F11.8°C 52.7°F11.5°C 98% 3.0 mph SW4.8 kmh SW 15.6 mph25.1 kmh 29.86 in1011.2 mb 0.00 in0.0 mm 0.00 in0.0 mm 0.00 in0.0 mm
10:05 AM 52.3°F11.3°C 51.8°F11.0°C 98% Calm Calm 6.5 mph10.5 kmh 29.86 in1011.2 mb 0.00 in0.0 mm 0.00 in0.0 mm 0.00 in0.0 mm
10:10 AM 51.6°F10.9°C 51.1°F10.6°C 98% 9.3 mph SW15.0 kmh SW 9.3 mph15.0 kmh 29.86 in1011.2 mb 0.00 in0.0 mm 0.00 in0.0 mm 0.00 in0.0 mm
10:15 AM 50.9°F10.5°C 50.4°F10.2°C 98% 2.7 mph SW4.3 kmh SW 9.3 mph15.0 kmh 29.86 in1011.2 mb 0.00 in0.0 mm 0.00 in0.0 mm 0.00 in0.0 mm
10:20 AM 50.5°F10.3°C 50.0°F10.0°C 98% 3.8 mph SW6.1 kmh SW 7.6 mph12.2 kmh 29.86 in1011.2 mb 0.00 in0.0 mm 0.00 in0.0 mm 0.00 in0.0 mm
10:25 AM 50.2°F10.1°C 49.6°F9.8°C 98% 5.7 mph SSW9.2 kmh SSW 6.0 mph9.7 kmh 29.86 in1011.2 mb 0.00 in0.0 mm 0.00 in0.0 mm 0.00 in0.0 mm
10:30 AM 50.0°F10.0°C 49.5°F9.7°C 98% 6.0 mph SW9.7 kmh SW 6.0 mph9.7 kmh 29.86 in1011.2 mb 0.00 in0.0 mm 0.00 in0.0 mm 0.00 in0.0 mm
10:35 AM 49.8°F9.9°C 49.3°F9.6°C 98% Calm Calm 6.0 mph9.7 kmh 29.86 in1011.2 mb 0.00 in0.0 mm 0.00 in0.0 mm 0.00 in0.0 mm
10:40 AM 50.0°F10.0°C 49.5°F9.7°C 98% 4.4 mph SSW7.1 kmh SSW 6.0 mph9.7 kmh 29.86 in1011.2 mb 0.00 in0.0 mm 0.00 in0.0 mm 0.00 in0.0 mm
10:45 AM 50.2°F10.1°C 49.6°F9.8°C 98% Calm Calm 4.9 mph7.9 kmh 29.86 in1011.2 mb 0.00 in0.0 mm 0.00 in0.0 mm 0.00 in0.0 mm
10:50 AM 50.4°F10.2°C 49.8°F9.9°C 98% Calm Calm 4.6 mph7.4 kmh 29.86 in1011.2 mb 0.00 in0.0 mm 0.00 in0.0 mm 0.00 in0.0 mm
10:55 AM 50.7°F10.4°C 50.2°F10.1°C 98% Calm Calm -- 29.86 in1011.2 mb 0.00 in0.0 mm 0.00 in0.0 mm 0.00 in0.0 mm
11:00 AM 51.1°F10.6°C 50.5°F10.3°C 98% Calm Calm -- 29.86 in1011.2 mb 0.00 in0.0 mm 0.00 in0.0 mm 0.00 in0.0 mm
11:05 AM 51.3°F10.7°C 50.7°F10.4°C 98% Calm Calm -- 29.86 in1011.2 mb 0.00 in0.0 mm 0.00 in0.0 mm 0.00 in0.0 mm
11:10 AM 51.4°F10.8°C 50.9°F10.5°C 98% Calm Calm -- 29.86 in1011.2 mb 0.00 in0.0 mm 0.00 in0.0 mm 0.00 in0.0 mm
11:15 AM 51.6°F10.9°C 51.1°F10.6°C 98% Calm Calm -- 29.83 in1010.2 mb 0.00 in0.0 mm 0.00 in0.0 mm 0.00 in0.0 mm
11:20 AM 51.8°F11.0°C 51.3°F10.7°C 98% Calm Calm -- 29.83 in1010.2 mb 0.00 in0.0 mm 0.00 in0.0 mm 0.00 in0.0 mm
11:25 AM 52.2°F11.2°C 51.6°F10.9°C 98% Calm Calm -- 29.83 in1010.2 mb 0.00 in0.0 mm 0.00 in0.0 mm 0.00 in0.0 mm
11:30 AM 52.2°F11.2°C 51.6°F10.9°C 98% Calm Calm -- 29.86 in1011.2 mb 0.00 in0.0 mm 0.00 in0.0 mm 0.00 in0.0 mm
11:35 AM 52.3°F11.3°C 51.8°F11.0°C 98% Calm Calm -- 29.86 in1011.2 mb 0.00 in0.0 mm 0.00 in0.0 mm 0.00 in0.0 mm
11:40 AM 52.3°F11.3°C 51.8°F11.0°C 98% Calm Calm -- 29.86 in1011.2 mb 0.00 in0.0 mm 0.00 in0.0 mm 0.00 in0.0 mm
11:45 AM 52.5°F11.4°C 52.0°F11.1°C 98% Calm Calm -- 29.83 in1010.2 mb 0.00 in0.0 mm 0.00 in0.0 mm 0.00 in0.0 mm
11:50 AM 52.5°F11.4°C 52.0°F11.1°C 98% Calm Calm -- 29.83 in1010.2 mb 0.00 in0.0 mm 0.00 in0.0 mm 0.00 in0.0 mm
11:55 AM 52.7°F11.5°C 52.2°F11.2°C 98% Calm Calm -- 29.83 in1010.2 mb 0.00 in0.0 mm 0.00 in0.0 mm 0.00 in0.0 mm
12:00 PM 52.7°F11.5°C 52.2°F11.2°C 98% Calm Calm -- 29.83 in1010.2 mb 0.00 in0.0 mm 0.00 in0.0 mm 0.00 in0.0 mm
12:05 PM 52.9°F11.6°C 52.3°F11.3°C 98% Calm Calm -- 29.83 in1010.2 mb 0.00 in0.0 mm 0.00 in0.0 mm 0.00 in0.0 mm
12:10 PM 53.2°F11.8°C 52.7°F11.5°C 98% Calm Calm -- 29.83 in1010.2 mb 0.00 in0.0 mm 0.00 in0.0 mm 0.00 in0.0 mm
12:15 PM 53.4°F11.9°C 52.9°F11.6°C 98% 4.4 mph WSW7.1 kmh WSW 5.2 mph8.4 kmh 29.83 in1010.2 mb 0.00 in0.0 mm 0.00 in0.0 mm 0.00 in0.0 mm
12:20 PM 53.4°F11.9°C 52.9°F11.6°C 98% 1.6 mph SW2.6 kmh SW 6.0 mph9.7 kmh 29.83 in1010.2 mb 0.00 in0.0 mm 0.00 in0.0 mm 0.00 in0.0 mm
12:25 PM 53.2°F11.8°C 52.7°F11.5°C 98% 7.9 mph SW12.7 kmh SW 7.9 mph12.7 kmh 29.83 in1010.2 mb 0.00 in0.0 mm 0.00 in0.0 mm 0.00 in0.0 mm
12:30 PM 53.2°F11.8°C 52.7°F11.5°C 98% 3.5 mph SW5.6 kmh SW 7.9 mph12.7 kmh 29.86 in1011.2 mb 0.00 in0.0 mm 0.00 in0.0 mm 0.00 in0.0 mm
12:35 PM 53.4°F11.9°C 52.9°F11.6°C 98% 4.9 mph SSW7.9 kmh SSW 9.8 mph15.8 kmh 29.86 in1011.2 mb 0.00 in0.0 mm 0.00 in0.0 mm 0.00 in0.0 mm
12:40 PM 53.4°F11.9°C 52.9°F11.6°C 98% 7.6 mph SW12.2 kmh SW 9.8 mph15.8 kmh 29.86 in1011.2 mb 0.00 in0.0 mm 0.00 in0.0 mm 0.00 in0.0 mm
12:45 PM 53.4°F11.9°C 52.9°F11.6°C 98% 7.4 mph SW11.9 kmh SW 7.6 mph12.2 kmh 29.86 in1011.2 mb 0.00 in0.0 mm 0.00 in0.0 mm 0.00 in0.0 mm
12:50 PM 53.4°F11.9°C 52.9°F11.6°C 98% 7.9 mph SW12.7 kmh SW 7.9 mph12.7 kmh 29.86 in1011.2 mb 0.00 in0.0 mm 0.00 in0.0 mm 0.00 in0.0 mm
12:55 PM 53.4°F11.9°C 52.9°F11.6°C 98% 4.6 mph SW7.4 kmh SW 9.3 mph15.0 kmh 29.86 in1011.2 mb 0.00 in0.0 mm 0.00 in0.0 mm 0.00 in0.0 mm
01:00 PM 53.4°F11.9°C 52.9°F11.6°C 98% Calm Calm 9.3 mph15.0 kmh 29.83 in1010.2 mb 0.00 in0.0 mm 0.00 in0.0 mm 0.00 in0.0 mm
01:05 PM 53.4°F11.9°C 52.9°F11.6°C 98% 1.6 mph SSW2.6 kmh SSW 7.6 mph12.2 kmh 29.83 in1010.2 mb 0.00 in0.0 mm 0.00 in0.0 mm 0.00 in0.0 mm
01:10 PM 53.6°F12.0°C 52.8°F11.6°C 97% 2.5 mph S4.0 kmh S 7.9 mph12.7 kmh 29.83 in1010.2 mb 0.00 in0.0 mm 0.00 in0.0 mm 0.00 in0.0 mm
01:15 PM 53.6°F12.0°C 52.8°F11.6°C 97% 5.7 mph SSW9.2 kmh SSW 7.9 mph12.7 kmh 29.83 in1010.2 mb 0.00 in0.0 mm 0.00 in0.0 mm 0.00 in0.0 mm
01:20 PM 53.4°F11.9°C 52.9°F11.6°C 98% 4.1 mph SW6.6 kmh SW 7.6 mph12.2 kmh 29.83 in1010.2 mb 0.00 in0.0 mm 0.00 in0.0 mm 0.00 in0.0 mm
01:25 PM 53.2°F11.8°C 52.4°F11.3°C 97% Calm Calm 7.6 mph12.2 kmh 29.83 in1010.2 mb 0.00 in0.0 mm 0.00 in0.0 mm 0.00 in0.0 mm
01:30 PM 53.2°F11.8°C 52.4°F11.3°C 97% 6.8 mph SSW10.9 kmh SSW 6.8 mph10.9 kmh 29.86 in1011.2 mb 0.00 in0.0 mm 0.00 in0.0 mm 0.00 in0.0 mm
01:35 PM 53.2°F11.8°C 52.4°F11.3°C 97% 2.7 mph SSW4.3 kmh SSW 8.5 mph13.7 kmh 29.86 in1011.2 mb 0.00 in0.0 mm 0.00 in0.0 mm 0.00 in0.0 mm
01:40 PM 53.4°F11.9°C 52.6°F11.4°C 97% 6.5 mph SW10.5 kmh SW 11.5 mph18.5 kmh 29.86 in1011.2 mb 0.00 in0.0 mm 0.00 in0.0 mm 0.00 in0.0 mm
01:45 PM 53.4°F11.9°C 52.6°F11.4°C 97% 4.4 mph SW7.1 kmh SW 12.6 mph20.3 kmh 29.86 in1011.2 mb 0.00 in0.0 mm 0.00 in0.0 mm 0.00 in0.0 mm
01:50 PM 53.4°F11.9°C 52.6°F11.4°C 97% 4.6 mph SSW7.4 kmh SSW 12.6 mph20.3 kmh 29.86 in1011.2 mb 0.00 in0.0 mm 0.00 in0.0 mm 0.00 in0.0 mm
01:55 PM 53.6°F12.0°C 52.8°F11.6°C 97% 4.9 mph SSW7.9 kmh SSW 9.8 mph15.8 kmh 29.86 in1011.2 mb 0.00 in0.0 mm 0.00 in0.0 mm 0.00 in0.0 mm
02:00 PM 53.8°F12.1°C 52.9°F11.6°C 97% 3.3 mph SW5.3 kmh SW 12.6 mph20.3 kmh 29.86 in1011.2 mb 0.00 in0.0 mm 0.00 in0.0 mm 0.00 in0.0 mm
02:05 PM 54.0°F12.2°C 53.1°F11.7°C 97% 3.3 mph SW5.3 kmh SW 12.6 mph20.3 kmh 29.86 in1011.2 mb 0.00 in0.0 mm 0.00 in0.0 mm 0.00 in0.0 mm
02:10 PM 54.0°F12.2°C 53.1°F11.7°C 97% 4.6 mph SW7.4 kmh SW 10.4 mph16.7 kmh 29.86 in1011.2 mb 0.00 in0.0 mm 0.00 in0.0 mm 0.00 in0.0 mm
02:15 PM 54.0°F12.2°C 53.1°F11.7°C 97% 4.6 mph SW7.4 kmh SW 12.8 mph20.6 kmh 29.86 in1011.2 mb 0.00 in0.0 mm 0.00 in0.0 mm 0.00 in0.0 mm
02:20 PM 54.0°F12.2°C 53.1°F11.7°C 97% 6.0 mph SW9.7 kmh SW 12.8 mph20.6 kmh 29.86 in1011.2 mb 0.00 in0.0 mm 0.00 in0.0 mm 0.00 in0.0 mm
02:25 PM 54.0°F12.2°C 53.1°F11.7°C 97% 7.9 mph SW12.7 kmh SW 11.2 mph18.0 kmh 29.86 in1011.2 mb 0.00 in0.0 mm 0.00 in0.0 mm 0.00 in0.0 mm
02:30 PM 52.5°F11.4°C 51.7°F10.9°C 97% 9.0 mph SW14.5 kmh SW 11.2 mph18.0 kmh 29.86 in1011.2 mb 0.00 in0.0 mm 0.00 in0.0 mm 0.00 in0.0 mm
02:35 PM 52.0°F11.1°C 51.2°F10.7°C 97% 2.7 mph SW4.3 kmh SW 9.0 mph14.5 kmh 29.86 in1011.2 mb 0.00 in0.0 mm 0.00 in0.0 mm 0.00 in0.0 mm
02:40 PM 51.3°F10.7°C 50.4°F10.2°C 97% 1.6 mph SW2.6 kmh SW 9.0 mph14.5 kmh 29.86 in1011.2 mb 0.00 in0.0 mm 0.00 in0.0 mm 0.00 in0.0 mm
02:45 PM 50.9°F10.5°C 50.4°F10.2°C 98% 9.6 mph SW15.4 kmh SW 9.6 mph15.4 kmh 29.86 in1011.2 mb 0.04 in1.0 mm 0.48 in12.2 mm 0.04 in1.0 mm
02:50 PM 50.4°F10.2°C 49.8°F9.9°C 98% 9.0 mph SW14.5 kmh SW 10.6 mph17.1 kmh 29.86 in1011.2 mb 0.04 in1.0 mm 0.00 in0.0 mm 0.04 in1.0 mm
02:55 PM 50.4°F10.2°C 49.8°F9.9°C 98% 4.6 mph SW7.4 kmh SW 10.6 mph17.1 kmh 29.86 in1011.2 mb 0.04 in1.0 mm 0.00 in0.0 mm 0.04 in1.0 mm
03:00 PM 50.2°F10.1°C 49.6°F9.8°C 98% 6.5 mph SW10.5 kmh SW 9.6 mph15.4 kmh 29.86 in1011.2 mb 0.04 in1.0 mm 0.00 in0.0 mm 0.04 in1.0 mm
03:05 PM 50.2°F10.1°C 49.6°F9.8°C 98% 3.3 mph SW5.3 kmh SW 9.6 mph15.4 kmh 29.86 in1011.2 mb 0.04 in1.0 mm 0.00 in0.0 mm 0.04 in1.0 mm
03:10 PM 50.2°F10.1°C 49.6°F9.8°C 98% 4.9 mph SW7.9 kmh SW 6.8 mph10.9 kmh 29.86 in1011.2 mb 0.04 in1.0 mm 0.00 in0.0 mm 0.04 in1.0 mm
03:15 PM 50.0°F10.0°C 49.5°F9.7°C 98% 9.0 mph SSW14.5 kmh SSW 12.6 mph20.3 kmh 29.86 in1011.2 mb 0.04 in1.0 mm 0.00 in0.0 mm 0.04 in1.0 mm
03:20 PM 50.0°F10.0°C 49.5°F9.7°C 98% 7.1 mph S11.4 kmh S 12.6 mph20.3 kmh 29.86 in1011.2 mb 0.08 in2.0 mm 0.48 in12.2 mm 0.08 in2.0 mm
03:25 PM 50.0°F10.0°C 49.5°F9.7°C 98% 7.6 mph S12.2 kmh S 7.9 mph12.7 kmh 29.86 in1011.2 mb 0.08 in2.0 mm 0.00 in0.0 mm 0.08 in2.0 mm
03:30 PM 50.0°F10.0°C 49.5°F9.7°C 98% 4.4 mph SSW7.1 kmh SSW 7.9 mph12.7 kmh 29.86 in1011.2 mb 0.08 in2.0 mm 0.00 in0.0 mm 0.08 in2.0 mm
03:35 PM 49.8°F9.9°C 49.3°F9.6°C 98% 7.4 mph SSW11.9 kmh SSW 7.6 mph12.2 kmh 29.86 in1011.2 mb 0.08 in2.0 mm 0.00 in0.0 mm 0.08 in2.0 mm
03:40 PM 49.8°F9.9°C 49.3°F9.6°C 98% 9.8 mph SSW15.8 kmh SSW 9.8 mph15.8 kmh 29.86 in1011.2 mb 0.04 in1.0 mm 0.00 in0.0 mm 0.08 in2.0 mm
03:45 PM 50.0°F10.0°C 49.5°F9.7°C 98% 7.6 mph SW12.2 kmh SW 9.8 mph15.8 kmh 29.86 in1011.2 mb 0.04 in1.0 mm 0.00 in0.0 mm 0.08 in2.0 mm
03:50 PM 50.2°F10.1°C 49.6°F9.8°C 98% 3.3 mph SW5.3 kmh SW 11.7 mph18.8 kmh 29.86 in1011.2 mb 0.04 in1.0 mm 0.00 in0.0 mm 0.08 in2.0 mm
03:55 PM 50.0°F10.0°C 49.5°F9.7°C 98% 4.9 mph SW7.9 kmh SW 11.7 mph18.8 kmh 29.86 in1011.2 mb 0.04 in1.0 mm 0.00 in0.0 mm 0.08 in2.0 mm
04:00 PM 50.0°F10.0°C 49.5°F9.7°C 98% 4.6 mph WSW7.4 kmh WSW 9.8 mph15.8 kmh 29.89 in1012.2 mb 0.04 in1.0 mm 0.00 in0.0 mm 0.08 in2.0 mm
04:05 PM 50.0°F10.0°C 49.5°F9.7°C 98% 3.8 mph SW6.1 kmh SW 9.0 mph14.5 kmh 29.89 in1012.2 mb 0.04 in1.0 mm 0.00 in0.0 mm 0.08 in2.0 mm
04:10 PM 50.0°F10.0°C 49.5°F9.7°C 98% Calm Calm 6.5 mph10.5 kmh 29.89 in1012.2 mb 0.04 in1.0 mm 0.00 in0.0 mm 0.08 in2.0 mm
04:15 PM 50.0°F10.0°C 49.5°F9.7°C 98% Calm Calm 6.5 mph10.5 kmh 29.89 in1012.2 mb 0.04 in1.0 mm 0.00 in0.0 mm 0.08 in2.0 mm
04:20 PM 50.0°F10.0°C 49.5°F9.7°C 98% 2.7 mph SW4.3 kmh SW 7.1 mph11.4 kmh 29.89 in1012.2 mb 0.00 in0.0 mm 0.00 in0.0 mm 0.08 in2.0 mm
04:25 PM 50.0°F10.0°C 49.5°F9.7°C 98% Calm Calm 7.1 mph11.4 kmh 29.89 in1012.2 mb 0.00 in0.0 mm 0.00 in0.0 mm 0.08 in2.0 mm
04:30 PM 49.8°F9.9°C 49.3°F9.6°C 98% Calm Calm 4.9 mph7.9 kmh 29.89 in1012.2 mb 0.00 in0.0 mm 0.00 in0.0 mm 0.08 in2.0 mm
04:35 PM 49.8°F9.9°C 49.3°F9.6°C 98% Calm Calm 1.9 mph3.1 kmh 29.89 in1012.2 mb 0.00 in0.0 mm 0.00 in0.0 mm 0.08 in2.0 mm
04:40 PM 49.8°F9.9°C 49.3°F9.6°C 98% Calm Calm -- 29.89 in1012.2 mb 0.00 in0.0 mm 0.00 in0.0 mm 0.08 in2.0 mm
04:45 PM 49.8°F9.9°C 49.3°F9.6°C 98% Calm Calm -- 29.89 in1012.2 mb 0.00 in0.0 mm 0.00 in0.0 mm 0.08 in2.0 mm
04:50 PM 49.8°F9.9°C 49.3°F9.6°C 98% Calm Calm -- 29.89 in1012.2 mb 0.00 in0.0 mm 0.00 in0.0 mm 0.08 in2.0 mm
04:55 PM 50.0°F10.0°C 49.5°F9.7°C 98% Calm Calm -- 29.89 in1012.2 mb 0.00 in0.0 mm 0.00 in0.0 mm 0.08 in2.0 mm
05:00 PM 50.0°F10.0°C 49.5°F9.7°C 98% Calm Calm -- 29.89 in1012.2 mb 0.00 in0.0 mm 0.00 in0.0 mm 0.08 in2.0 mm
05:05 PM 50.0°F10.0°C 49.5°F9.7°C 98% Calm Calm -- 29.89 in1012.2 mb 0.00 in0.0 mm 0.00 in0.0 mm 0.08 in2.0 mm
05:10 PM 50.2°F10.1°C 49.6°F9.8°C 98% Calm Calm -- 29.89 in1012.2 mb 0.00 in0.0 mm 0.00 in0.0 mm 0.08 in2.0 mm
05:15 PM 50.2°F10.1°C 49.6°F9.8°C 98% Calm Calm -- 29.89 in1012.2 mb 0.00 in0.0 mm 0.00 in0.0 mm 0.08 in2.0 mm
05:20 PM 50.2°F10.1°C 49.6°F9.8°C 98% 6.0 mph SSW9.7 kmh SSW 6.0 mph9.7 kmh 29.89 in1012.2 mb 0.00 in0.0 mm 0.00 in0.0 mm 0.08 in2.0 mm
05:25 PM 50.2°F10.1°C 49.6°F9.8°C 98% 4.6 mph SSW7.4 kmh SSW 6.0 mph9.7 kmh 29.89 in1012.2 mb 0.00 in0.0 mm 0.00 in0.0 mm 0.08 in2.0 mm
05:30 PM 50.2°F10.1°C 49.6°F9.8°C 98% 1.4 mph SSW2.3 kmh SSW 6.5 mph10.5 kmh 29.92 in1013.2 mb 0.00 in0.0 mm 0.00 in0.0 mm 0.08 in2.0 mm
05:35 PM 50.4°F10.2°C 49.8°F9.9°C 98% Calm Calm 6.8 mph10.9 kmh 29.92 in1013.2 mb 0.00 in0.0 mm 0.00 in0.0 mm 0.08 in2.0 mm
05:40 PM 50.5°F10.3°C 50.0°F10.0°C 98% 4.6 mph SW7.4 kmh SW 6.8 mph10.9 kmh 29.92 in1013.2 mb 0.00 in0.0 mm 0.00 in0.0 mm 0.08 in2.0 mm
05:45 PM 50.5°F10.3°C 50.0°F10.0°C 98% 2.5 mph SW4.0 kmh SW 6.5 mph10.5 kmh 29.92 in1013.2 mb 0.00 in0.0 mm 0.00 in0.0 mm 0.08 in2.0 mm
05:50 PM 50.5°F10.3°C 50.0°F10.0°C 98% 3.0 mph SW4.8 kmh SW 7.1 mph11.4 kmh 29.92 in1013.2 mb 0.00 in0.0 mm 0.00 in0.0 mm 0.08 in2.0 mm
05:55 PM 50.5°F10.3°C 50.0°F10.0°C 98% Calm Calm 7.1 mph11.4 kmh 29.92 in1013.2 mb 0.00 in0.0 mm 0.00 in0.0 mm 0.08 in2.0 mm
06:00 PM 50.2°F10.1°C 49.6°F9.8°C 98% Calm Calm 4.6 mph7.4 kmh 29.92 in1013.2 mb 0.00 in0.0 mm 0.00 in0.0 mm 0.08 in2.0 mm
06:05 PM 50.0°F10.0°C 49.5°F9.7°C 98% Calm Calm -- 29.92 in1013.2 mb 0.00 in0.0 mm 0.00 in0.0 mm 0.08 in2.0 mm
06:10 PM 49.6°F9.8°C 49.1°F9.5°C 98% Calm Calm -- 29.92 in1013.2 mb 0.00 in0.0 mm 0.00 in0.0 mm 0.08 in2.0 mm
06:15 PM 49.6°F9.8°C 49.1°F9.5°C 98% Calm Calm -- 29.92 in1013.2 mb 0.00 in0.0 mm 0.00 in0.0 mm 0.08 in2.0 mm
06:20 PM 49.6°F9.8°C 49.1°F9.5°C 98% Calm Calm -- 29.92 in1013.2 mb 0.00 in0.0 mm 0.00 in0.0 mm 0.08 in2.0 mm
06:25 PM 49.6°F9.8°C 49.1°F9.5°C 98% Calm Calm -- 29.92 in1013.2 mb 0.00 in0.0 mm 0.00 in0.0 mm 0.08 in2.0 mm
06:30 PM 49.8°F9.9°C 49.3°F9.6°C 98% Calm Calm -- 29.92 in1013.2 mb 0.00 in0.0 mm 0.00 in0.0 mm 0.08 in2.0 mm
06:35 PM 50.0°F10.0°C 49.5°F9.7°C 98% Calm Calm -- 29.92 in1013.2 mb 0.00 in0.0 mm 0.00 in0.0 mm 0.08 in2.0 mm
06:40 PM 50.0°F10.0°C 49.5°F9.7°C 98% Calm Calm 5.2 mph8.4 kmh 29.92 in1013.2 mb 0.00 in0.0 mm 0.00 in0.0 mm 0.08 in2.0 mm
06:45 PM 50.0°F10.0°C 49.5°F9.7°C 98% Calm Calm 5.2 mph8.4 kmh 29.92 in1013.2 mb 0.00 in0.0 mm 0.00 in0.0 mm 0.08 in2.0 mm
06:50 PM 50.0°F10.0°C 49.5°F9.7°C 98% 1.9 mph SW3.1 kmh SW 3.3 mph5.3 kmh 29.92 in1013.2 mb 0.00 in0.0 mm 0.00 in0.0 mm 0.08 in2.0 mm
06:55 PM 49.8°F9.9°C 49.3°F9.6°C 98% 4.1 mph S6.6 kmh S 4.6 mph7.4 kmh 29.92 in1013.2 mb 0.00 in0.0 mm 0.00 in0.0 mm 0.08 in2.0 mm
07:00 PM 49.6°F9.8°C 49.1°F9.5°C 98% Calm Calm 4.6 mph7.4 kmh 29.92 in1013.2 mb 0.00 in0.0 mm 0.00 in0.0 mm 0.08 in2.0 mm
07:05 PM 49.6°F9.8°C 49.1°F9.5°C 98% Calm Calm 3.3 mph5.3 kmh 29.92 in1013.2 mb 0.00 in0.0 mm 0.00 in0.0 mm 0.08 in2.0 mm
07:10 PM 49.6°F9.8°C 49.1°F9.5°C 98% Calm Calm -- 29.92 in1013.2 mb 0.00 in0.0 mm 0.00 in0.0 mm 0.08 in2.0 mm
07:15 PM 49.6°F9.8°C 49.1°F9.5°C 98% Calm Calm -- 29.92 in1013.2 mb 0.00 in0.0 mm 0.00 in0.0 mm 0.08 in2.0 mm
07:20 PM 49.6°F9.8°C 49.1°F9.5°C 98% Calm Calm -- 29.92 in1013.2 mb 0.00 in0.0 mm 0.00 in0.0 mm 0.08 in2.0 mm
07:25 PM 49.5°F9.7°C 48.9°F9.4°C 98% Calm Calm -- 29.92 in1013.2 mb 0.00 in0.0 mm 0.00 in0.0 mm 0.08 in2.0 mm
07:30 PM 49.3°F9.6°C 48.7°F9.3°C 98% 3.8 mph SW6.1 kmh SW 11.5 mph18.5 kmh 29.92 in1013.2 mb 0.00 in0.0 mm 0.00 in0.0 mm 0.08 in2.0 mm
07:35 PM 49.3°F9.6°C 48.7°F9.3°C 98% 4.6 mph SW7.4 kmh SW 11.5 mph18.5 kmh 29.92 in1013.2 mb 0.00 in0.0 mm 0.00 in0.0 mm 0.08 in2.0 mm
07:40 PM 49.1°F9.5°C 48.6°F9.2°C 98% Calm Calm 9.3 mph15.0 kmh 29.92 in1013.2 mb 0.00 in0.0 mm 0.00 in0.0 mm 0.08 in2.0 mm
07:45 PM 48.9°F9.4°C 48.4°F9.1°C 98% Calm Calm 9.3 mph15.0 kmh 29.92 in1013.2 mb 0.00 in0.0 mm 0.00 in0.0 mm 0.08 in2.0 mm
07:50 PM 48.9°F9.4°C 48.4°F9.1°C 98% Calm Calm -- 29.92 in1013.2 mb 0.00 in0.0 mm 0.00 in0.0 mm 0.08 in2.0 mm
07:55 PM 48.7°F9.3°C 48.2°F9.0°C 98% Calm Calm -- 29.92 in1013.2 mb 0.00 in0.0 mm 0.00 in0.0 mm 0.08 in2.0 mm
08:00 PM 48.9°F9.4°C 48.4°F9.1°C 98% Calm Calm -- 29.92 in1013.2 mb 0.00 in0.0 mm 0.00 in0.0 mm 0.08 in2.0 mm
08:05 PM 48.9°F9.4°C 48.4°F9.1°C 98% Calm Calm -- 29.92 in1013.2 mb 0.00 in0.0 mm 0.00 in0.0 mm 0.08 in2.0 mm
08:10 PM 48.9°F9.4°C 48.4°F9.1°C 98% Calm Calm -- 29.92 in1013.2 mb 0.00 in0.0 mm 0.00 in0.0 mm 0.08 in2.0 mm
08:15 PM 48.9°F9.4°C 48.4°F9.1°C 98% Calm Calm -- 29.92 in1013.2 mb 0.00 in0.0 mm 0.00 in0.0 mm 0.08 in2.0 mm
08:20 PM 48.9°F9.4°C 48.4°F9.1°C 98% Calm Calm -- 29.92 in1013.2 mb 0.00 in0.0 mm 0.00 in0.0 mm 0.08 in2.0 mm
08:25 PM 49.1°F9.5°C 48.6°F9.2°C 98% Calm Calm -- 29.92 in1013.2 mb 0.00 in0.0 mm 0.00 in0.0 mm 0.08 in2.0 mm
08:30 PM 49.3°F9.6°C 48.7°F9.3°C 98% Calm Calm -- 29.92 in1013.2 mb 0.00 in0.0 mm 0.00 in0.0 mm 0.08 in2.0 mm
08:35 PM 49.5°F9.7°C 48.9°F9.4°C 98% Calm Calm 4.9 mph7.9 kmh 29.92 in1013.2 mb 0.00 in0.0 mm 0.00 in0.0 mm 0.08 in2.0 mm
08:40 PM 49.5°F9.7°C 48.9°F9.4°C 98% Calm Calm 4.9 mph7.9 kmh 29.92 in1013.2 mb 0.00 in0.0 mm 0.00 in0.0 mm 0.08 in2.0 mm
08:45 PM 49.5°F9.7°C 48.9°F9.4°C 98% Calm Calm 4.4 mph7.1 kmh 29.92 in1013.2 mb 0.00 in0.0 mm 0.00 in0.0 mm 0.08 in2.0 mm
08:50 PM 49.5°F9.7°C 48.9°F9.4°C 98% Calm Calm -- 29.92 in1013.2 mb 0.00 in0.0 mm 0.00 in0.0 mm 0.08 in2.0 mm
08:55 PM 49.5°F9.7°C 48.9°F9.4°C 98% Calm Calm 1.4 mph2.3 kmh 29.92 in1013.2 mb 0.00 in0.0 mm 0.00 in0.0 mm 0.08 in2.0 mm
09:00 PM 49.5°F9.7°C 48.9°F9.4°C 98% Calm Calm 1.4 mph2.3 kmh 29.92 in1013.2 mb 0.00 in0.0 mm 0.00 in0.0 mm 0.08 in2.0 mm
09:05 PM 49.5°F9.7°C 48.9°F9.4°C 98% Calm Calm -- 29.92 in1013.2 mb 0.00 in0.0 mm 0.00 in0.0 mm 0.08 in2.0 mm
09:10 PM 49.5°F9.7°C 48.9°F9.4°C 98% Calm Calm -- 29.92 in1013.2 mb 0.00 in0.0 mm 0.00 in0.0 mm 0.08 in2.0 mm
09:15 PM 49.5°F9.7°C 48.9°F9.4°C 98% Calm Calm 1.4 mph2.3 kmh 29.92 in1013.2 mb 0.00 in0.0 mm 0.00 in0.0 mm 0.08 in2.0 mm
09:20 PM 49.3°F9.6°C 48.7°F9.3°C 98% Calm Calm 1.4 mph2.3 kmh 29.92 in1013.2 mb 0.00 in0.0 mm 0.00 in0.0 mm 0.08 in2.0 mm
09:25 PM 49.3°F9.6°C 48.7°F9.3°C 98% Calm Calm -- 29.92 in1013.2 mb 0.00 in0.0 mm 0.00 in0.0 mm 0.08 in2.0 mm
09:30 PM 49.1°F9.5°C 48.6°F9.2°C 98% Calm Calm -- 29.92 in1013.2 mb 0.00 in0.0 mm 0.00 in0.0 mm 0.08 in2.0 mm
09:35 PM 49.1°F9.5°C 48.6°F9.2°C 98% Calm Calm -- 29.92 in1013.2 mb 0.00 in0.0 mm 0.00 in0.0 mm 0.08 in2.0 mm
09:40 PM 49.1°F9.5°C 48.6°F9.2°C 98% Calm Calm -- 29.92 in1013.2 mb 0.00 in0.0 mm 0.00 in0.0 mm 0.08 in2.0 mm
09:45 PM 49.1°F9.5°C 48.6°F9.2°C 98% Calm Calm -- 29.92 in1013.2 mb 0.00 in0.0 mm 0.00 in0.0 mm 0.08 in2.0 mm
09:50 PM 49.1°F9.5°C 48.6°F9.2°C 98% Calm Calm -- 29.92 in1013.2 mb 0.00 in0.0 mm 0.00 in0.0 mm 0.08 in2.0 mm
09:55 PM 48.9°F9.4°C 48.4°F9.1°C 98% Calm Calm -- 29.92 in1013.2 mb 0.00 in0.0 mm 0.00 in0.0 mm 0.08 in2.0 mm
10:00 PM 48.9°F9.4°C 48.4°F9.1°C 98% Calm Calm -- 29.92 in1013.2 mb 0.00 in0.0 mm 0.00 in0.0 mm 0.08 in2.0 mm
10:05 PM 48.7°F9.3°C 48.2°F9.0°C 98% Calm Calm -- 29.92 in1013.2 mb 0.00 in0.0 mm 0.00 in0.0 mm 0.08 in2.0 mm
10:10 PM 48.7°F9.3°C 48.2°F9.0°C 98% Calm Calm -- 29.92 in1013.2 mb 0.00 in0.0 mm 0.00 in0.0 mm 0.08 in2.0 mm
10:15 PM 48.6°F9.2°C 48.0°F8.9°C 98% Calm Calm -- 29.92 in1013.2 mb 0.00 in0.0 mm 0.00 in0.0 mm 0.08 in2.0 mm
10:20 PM 48.6°F9.2°C 48.0°F8.9°C 98% Calm Calm -- 29.92 in1013.2 mb 0.00 in0.0 mm 0.00 in0.0 mm 0.08 in2.0 mm
10:25 PM 48.6°F9.2°C 48.0°F8.9°C 98% Calm Calm -- 29.92 in1013.2 mb 0.00 in0.0 mm 0.00 in0.0 mm 0.08 in2.0 mm
10:30 PM 48.6°F9.2°C 48.0°F8.9°C 98% Calm Calm -- 29.92 in1013.2 mb 0.00 in0.0 mm 0.00 in0.0 mm 0.08 in2.0 mm
10:35 PM 48.6°F9.2°C 48.0°F8.9°C 98% Calm Calm -- 29.92 in1013.2 mb 0.00 in0.0 mm 0.00 in0.0 mm 0.08 in2.0 mm
10:40 PM 48.6°F9.2°C 48.0°F8.9°C 98% Calm Calm -- 29.92 in1013.2 mb 0.00 in0.0 mm 0.00 in0.0 mm 0.08 in2.0 mm
10:45 PM 48.6°F9.2°C 48.0°F8.9°C 98% Calm Calm -- 29.92 in1013.2 mb 0.00 in0.0 mm 0.00 in0.0 mm 0.08 in2.0 mm
10:50 PM 48.6°F9.2°C 48.0°F8.9°C 98% Calm Calm -- 29.92 in1013.2 mb 0.00 in0.0 mm 0.00 in0.0 mm 0.08 in2.0 mm
10:55 PM 48.6°F9.2°C 48.0°F8.9°C 98% Calm Calm -- 29.92 in1013.2 mb 0.00 in0.0 mm 0.00 in0.0 mm 0.08 in2.0 mm
11:00 PM 48.6°F9.2°C 48.0°F8.9°C 98% Calm Calm -- 29.92 in1013.2 mb 0.00 in0.0 mm 0.00 in0.0 mm 0.08 in2.0 mm
11:05 PM 48.4°F9.1°C 47.8°F8.8°C 98% Calm Calm -- 29.92 in1013.2 mb 0.00 in0.0 mm 0.00 in0.0 mm 0.08 in2.0 mm
11:10 PM 48.4°F9.1°C 47.8°F8.8°C 98% Calm Calm -- 29.92 in1013.2 mb 0.00 in0.0 mm 0.00 in0.0 mm 0.08 in2.0 mm
11:15 PM 48.4°F9.1°C 47.8°F8.8°C 98% Calm Calm -- 29.92 in1013.2 mb 0.00 in0.0 mm 0.00 in0.0 mm 0.08 in2.0 mm
11:20 PM 48.4°F9.1°C 47.8°F8.8°C 98% Calm Calm -- 29.92 in1013.2 mb 0.00 in0.0 mm 0.00 in0.0 mm 0.08 in2.0 mm
11:25 PM 48.4°F9.1°C 47.8°F8.8°C 98% Calm Calm -- 29.92 in1013.2 mb 0.00 in0.0 mm 0.00 in0.0 mm 0.08 in2.0 mm
11:30 PM 48.4°F9.1°C 47.8°F8.8°C 98% Calm Calm -- 29.92 in1013.2 mb 0.00 in0.0 mm 0.00 in0.0 mm 0.08 in2.0 mm
11:35 PM 48.2°F9.0°C 47.7°F8.7°C 98% Calm Calm -- 29.92 in1013.2 mb 0.00 in0.0 mm 0.00 in0.0 mm 0.08 in2.0 mm
11:40 PM 48.2°F9.0°C 47.7°F8.7°C 98% Calm Calm -- 29.92 in1013.2 mb 0.00 in0.0 mm 0.00 in0.0 mm 0.08 in2.0 mm
11:45 PM 48.2°F9.0°C 47.7°F8.7°C 98% Calm Calm -- 29.92 in1013.2 mb 0.00 in0.0 mm 0.00 in0.0 mm 0.08 in2.0 mm
11:50 PM 48.2°F9.0°C 47.7°F8.7°C 98% Calm Calm -- 29.92 in1013.2 mb 0.00 in0.0 mm 0.00 in0.0 mm 0.08 in2.0 mm
11:55 PM 48.0°F8.9°C 47.5°F8.6°C 98% Calm Calm -- 29.92 in1013.2 mb 0.00 in0.0 mm 0.00 in0.0 mm 0.08 in2.0 mm